sensor_id;sensor_type;location;lat;lon;timestamp;pressure;altitude;pressure_sealevel;temperature;humidity
39954;BME280;25631;51.516;-0.470;2023-05-23T00:00:27;102321.30;;;13.60;27.54
39954;BME280;25631;51.516;-0.470;2023-05-23T00:03:04;102319.17;;;13.32;27.76
39954;BME280;25631;51.516;-0.470;2023-05-23T00:05:40;102320.91;;;13.38;27.93
39954;BME280;25631;51.516;-0.470;2023-05-23T00:08:17;102322.68;;;13.36;28.07
39954;BME280;25631;51.516;-0.470;2023-05-23T00:10:54;102318.19;;;13.11;28.12
39954;BME280;25631;51.516;-0.470;2023-05-23T00:13:30;102317.41;;;13.20;28.28
39954;BME280;25631;51.516;-0.470;2023-05-23T00:16:08;102316.36;;;13.05;28.29
39954;BME280;25631;51.516;-0.470;2023-05-23T00:18:44;102314.99;;;13.33;28.41
39954;BME280;25631;51.516;-0.470;2023-05-23T00:21:21;102311.62;;;13.06;28.49
39954;BME280;25631;51.516;-0.470;2023-05-23T00:23:57;102312.76;;;13.09;28.52
39954;BME280;25631;51.516;-0.470;2023-05-23T00:26:33;102312.02;;;13.11;28.59
39954;BME280;25631;51.516;-0.470;2023-05-23T00:29:10;102311.52;;;13.20;28.67
39954;BME280;25631;51.516;-0.470;2023-05-23T00:31:46;102308.80;;;13.19;28.76
39954;BME280;25631;51.516;-0.470;2023-05-23T00:34:23;102308.84;;;12.85;28.86
39954;BME280;25631;51.516;-0.470;2023-05-23T00:37:00;102307.23;;;12.86;28.93
39954;BME280;25631;51.516;-0.470;2023-05-23T00:39:36;102311.69;;;12.72;28.97
39954;BME280;25631;51.516;-0.470;2023-05-23T00:42:12;102307.22;;;12.66;28.99
39954;BME280;25631;51.516;-0.470;2023-05-23T00:44:49;102307.38;;;12.72;29.10
39954;BME280;25631;51.516;-0.470;2023-05-23T00:47:25;102306.54;;;12.98;29.14
39954;BME280;25631;51.516;-0.470;2023-05-23T00:50:02;102303.99;;;12.89;29.32
39954;BME280;25631;51.516;-0.470;2023-05-23T00:52:45;102300.97;;;12.55;29.26
39954;BME280;25631;51.516;-0.470;2023-05-23T00:55:23;102300.75;;;12.58;29.30
39954;BME280;25631;51.516;-0.470;2023-05-23T00:57:59;102293.48;;;12.64;29.33
39954;BME280;25631;51.516;-0.470;2023-05-23T01:00:37;102293.67;;;12.89;29.45
39954;BME280;25631;51.516;-0.470;2023-05-23T01:03:14;102298.28;;;12.68;29.49
39954;BME280;25631;51.516;-0.470;2023-05-23T01:05:50;102303.83;;;12.69;29.73
39954;BME280;25631;51.516;-0.470;2023-05-23T01:08:29;102302.14;;;12.74;29.74
39954;BME280;25631;51.516;-0.470;2023-05-23T01:11:14;102303.43;;;12.47;29.86
39954;BME280;25631;51.516;-0.470;2023-05-23T01:14:01;102304.21;;;12.45;30.02
39954;BME280;25631;51.516;-0.470;2023-05-23T01:16:45;102306.67;;;12.39;30.10
39954;BME280;25631;51.516;-0.470;2023-05-23T01:19:43;102309.34;;;12.24;30.23
39954;BME280;25631;51.516;-0.470;2023-05-23T01:22:37;102312.86;;;12.24;30.16
39954;BME280;25631;51.516;-0.470;2023-05-23T01:25:27;102316.19;;;12.18;30.29
39954;BME280;25631;51.516;-0.470;2023-05-23T01:28:06;102314.60;;;12.14;30.55
39954;BME280;25631;51.516;-0.470;2023-05-23T01:30:45;102310.82;;;12.12;30.57
39954;BME280;25631;51.516;-0.470;2023-05-23T01:33:24;102308.96;;;12.09;30.60
39954;BME280;25631;51.516;-0.470;2023-05-23T01:36:01;102307.60;;;12.21;30.57
39954;BME280;25631;51.516;-0.470;2023-05-23T01:38:38;102303.24;;;11.91;30.70
39954;BME280;25631;51.516;-0.470;2023-05-23T01:41:14;102307.93;;;11.99;30.70
39954;BME280;25631;51.516;-0.470;2023-05-23T01:43:51;102307.66;;;11.92;30.82
39954;BME280;25631;51.516;-0.470;2023-05-23T01:46:29;102311.76;;;11.90;30.87
39954;BME280;25631;51.516;-0.470;2023-05-23T01:49:09;102315.21;;;11.96;30.98
39954;BME280;25631;51.516;-0.470;2023-05-23T01:51:46;102322.50;;;11.81;31.06
39954;BME280;25631;51.516;-0.470;2023-05-23T01:54:29;102319.74;;;11.86;31.32
39954;BME280;25631;51.516;-0.470;2023-05-23T01:57:06;102319.94;;;11.94;31.21
39954;BME280;25631;51.516;-0.470;2023-05-23T01:59:42;102322.06;;;11.87;31.37
39954;BME280;25631;51.516;-0.470;2023-05-23T02:02:18;102317.34;;;12.02;31.38
39954;BME280;25631;51.516;-0.470;2023-05-23T02:04:55;102321.34;;;11.73;31.51
39954;BME280;25631;51.516;-0.470;2023-05-23T02:07:32;102329.72;;;11.62;31.66
39954;BME280;25631;51.516;-0.470;2023-05-23T02:10:08;102328.92;;;11.52;31.92
39954;BME280;25631;51.516;-0.470;2023-05-23T02:12:45;102331.91;;;11.58;32.22
39954;BME280;25631;51.516;-0.470;2023-05-23T02:15:21;102331.87;;;12.04;32.34
39954;BME280;25631;51.516;-0.470;2023-05-23T02:17:58;102333.58;;;11.46;32.44
39954;BME280;25631;51.516;-0.470;2023-05-23T02:20:35;102337.88;;;11.50;32.49
39954;BME280;25631;51.516;-0.470;2023-05-23T02:23:11;102338.37;;;11.66;32.71
39954;BME280;25631;51.516;-0.470;2023-05-23T02:25:47;102347.48;;;11.67;32.69
39954;BME280;25631;51.516;-0.470;2023-05-23T02:28:24;102349.97;;;11.75;32.82
39954;BME280;25631;51.516;-0.470;2023-05-23T02:31:01;102351.47;;;11.42;32.88
39954;BME280;25631;51.516;-0.470;2023-05-23T02:33:37;102351.88;;;11.70;33.01
39954;BME280;25631;51.516;-0.470;2023-05-23T02:36:14;102351.94;;;11.53;33.21
39954;BME280;25631;51.516;-0.470;2023-05-23T02:38:50;102351.11;;;11.43;33.30
39954;BME280;25631;51.516;-0.470;2023-05-23T02:41:27;102360.11;;;11.48;33.46
39954;BME280;25631;51.516;-0.470;2023-05-23T02:44:04;102359.68;;;11.15;33.47
39954;BME280;25631;51.516;-0.470;2023-05-23T02:46:41;102355.83;;;11.73;33.51
39954;BME280;25631;51.516;-0.470;2023-05-23T02:49:17;102359.42;;;11.60;33.59
39954;BME280;25631;51.516;-0.470;2023-05-23T02:51:54;102361.01;;;11.60;33.60
39954;BME280;25631;51.516;-0.470;2023-05-23T02:54:30;102361.36;;;11.40;33.65
39954;BME280;25631;51.516;-0.470;2023-05-23T02:57:07;102368.06;;;11.49;33.79
39954;BME280;25631;51.516;-0.470;2023-05-23T02:59:43;102369.24;;;11.44;33.90
39954;BME280;25631;51.516;-0.470;2023-05-23T03:02:20;102372.19;;;11.32;33.93
39954;BME280;25631;51.516;-0.470;2023-05-23T03:04:56;102369.27;;;11.63;33.96
39954;BME280;25631;51.516;-0.470;2023-05-23T03:07:33;102368.11;;;11.42;34.03
39954;BME280;25631;51.516;-0.470;2023-05-23T03:10:10;102370.08;;;11.45;34.10
39954;BME280;25631;51.516;-0.470;2023-05-23T03:12:46;102371.21;;;11.36;34.28
39954;BME280;25631;51.516;-0.470;2023-05-23T03:15:22;102371.69;;;11.24;34.28
39954;BME280;25631;51.516;-0.470;2023-05-23T03:17:59;102371.51;;;11.16;34.24
39954;BME280;25631;51.516;-0.470;2023-05-23T03:20:36;102370.86;;;11.39;34.30
39954;BME280;25631;51.516;-0.470;2023-05-23T03:23:12;102367.25;;;11.44;34.35
39954;BME280;25631;51.516;-0.470;2023-05-23T03:25:49;102369.58;;;11.46;34.47
39954;BME280;25631;51.516;-0.470;2023-05-23T03:28:25;102367.44;;;11.21;34.61
39954;BME280;25631;51.516;-0.470;2023-05-23T03:31:02;102364.51;;;11.02;34.68
39954;BME280;25631;51.516;-0.470;2023-05-23T03:33:38;102365.00;;;11.15;34.82
39954;BME280;25631;51.516;-0.470;2023-05-23T03:36:15;102363.72;;;11.18;34.80
39954;BME280;25631;51.516;-0.470;2023-05-23T03:38:52;102365.28;;;11.22;34.91
39954;BME280;25631;51.516;-0.470;2023-05-23T03:41:28;102365.87;;;11.25;34.94
39954;BME280;25631;51.516;-0.470;2023-05-23T03:44:05;102366.27;;;11.03;34.93
39954;BME280;25631;51.516;-0.470;2023-05-23T03:46:42;102366.61;;;10.92;34.89
39954;BME280;25631;51.516;-0.470;2023-05-23T03:49:18;102362.29;;;11.09;34.93
39954;BME280;25631;51.516;-0.470;2023-05-23T03:51:55;102363.96;;;11.05;34.98
39954;BME280;25631;51.516;-0.470;2023-05-23T03:54:31;102360.47;;;10.91;35.18
39954;BME280;25631;51.516;-0.470;2023-05-23T03:57:08;102359.47;;;10.83;35.21
39954;BME280;25631;51.516;-0.470;2023-05-23T03:59:45;102356.07;;;11.07;35.16
39954;BME280;25631;51.516;-0.470;2023-05-23T04:02:21;102357.52;;;10.73;35.25
39954;BME280;25631;51.516;-0.470;2023-05-23T04:04:57;102357.48;;;10.70;35.22
39954;BME280;25631;51.516;-0.470;2023-05-23T04:07:36;102360.16;;;10.79;35.20
39954;BME280;25631;51.516;-0.470;2023-05-23T04:10:12;102363.73;;;10.65;35.24
39954;BME280;25631;51.516;-0.470;2023-05-23T04:12:48;102362.24;;;10.87;35.27
39954;BME280;25631;51.516;-0.470;2023-05-23T04:15:25;102368.21;;;10.65;35.42
39954;BME280;25631;51.516;-0.470;2023-05-23T04:18:01;102372.14;;;10.64;35.37
39954;BME280;25631;51.516;-0.470;2023-05-23T04:20:38;102372.40;;;10.26;35.36
39954;BME280;25631;51.516;-0.470;2023-05-23T04:23:14;102374.85;;;10.83;35.34
39954;BME280;25631;51.516;-0.470;2023-05-23T04:25:51;102375.45;;;11.00;35.40
39954;BME280;25631;51.516;-0.470;2023-05-23T04:28:28;102374.59;;;11.08;35.33
39954;BME280;25631;51.516;-0.470;2023-05-23T04:31:04;102375.63;;;10.92;35.31
39954;BME280;25631;51.516;-0.470;2023-05-23T04:33:41;102378.27;;;10.94;35.31
39954;BME280;25631;51.516;-0.470;2023-05-23T04:36:17;102381.22;;;10.86;35.33
39954;BME280;25631;51.516;-0.470;2023-05-23T04:38:54;102383.09;;;11.05;35.35
39954;BME280;25631;51.516;-0.470;2023-05-23T04:41:30;102380.54;;;11.03;35.36
39954;BME280;25631;51.516;-0.470;2023-05-23T04:44:07;102380.74;;;10.76;35.42
39954;BME280;25631;51.516;-0.470;2023-05-23T04:46:43;102384.43;;;10.99;35.36
39954;BME280;25631;51.516;-0.470;2023-05-23T04:49:20;102387.19;;;10.75;35.47
39954;BME280;25631;51.516;-0.470;2023-05-23T04:51:56;102387.00;;;10.73;35.45
39954;BME280;25631;51.516;-0.470;2023-05-23T04:54:34;102393.04;;;10.98;35.62
39954;BME280;25631;51.516;-0.470;2023-05-23T04:57:10;102395.65;;;10.71;35.72
39954;BME280;25631;51.516;-0.470;2023-05-23T04:59:47;102399.15;;;10.82;35.85
39954;BME280;25631;51.516;-0.470;2023-05-23T05:02:23;102401.61;;;10.78;35.97
39954;BME280;25631;51.516;-0.470;2023-05-23T05:05:00;102403.54;;;10.84;35.96
39954;BME280;25631;51.516;-0.470;2023-05-23T05:07:36;102405.28;;;10.60;36.03
39954;BME280;25631;51.516;-0.470;2023-05-23T05:10:14;102404.77;;;10.88;35.97
39954;BME280;25631;51.516;-0.470;2023-05-23T05:12:50;102405.69;;;10.56;36.11
39954;BME280;25631;51.516;-0.470;2023-05-23T05:15:27;102404.48;;;10.85;36.02
39954;BME280;25631;51.516;-0.470;2023-05-23T05:18:03;102405.52;;;10.75;35.95
39954;BME280;25631;51.516;-0.470;2023-05-23T05:20:40;102411.55;;;10.37;36.05
39954;BME280;25631;51.516;-0.470;2023-05-23T05:23:16;102412.75;;;10.76;36.03
39954;BME280;25631;51.516;-0.470;2023-05-23T05:25:53;102416.38;;;10.82;35.99
39954;BME280;25631;51.516;-0.470;2023-05-23T05:28:29;102421.72;;;10.89;35.96
39954;BME280;25631;51.516;-0.470;2023-05-23T05:31:06;102421.40;;;11.16;36.01
39954;BME280;25631;51.516;-0.470;2023-05-23T05:33:42;102423.68;;;10.89;36.11
39954;BME280;25631;51.516;-0.470;2023-05-23T05:36:19;102421.41;;;10.91;36.06
39954;BME280;25631;51.516;-0.470;2023-05-23T05:38:56;102418.70;;;10.83;36.27
39954;BME280;25631;51.516;-0.470;2023-05-23T05:41:32;102421.96;;;11.15;36.12
39954;BME280;25631;51.516;-0.470;2023-05-23T05:44:09;102426.14;;;11.01;36.25
39954;BME280;25631;51.516;-0.470;2023-05-23T05:46:45;102428.38;;;10.84;36.37
39954;BME280;25631;51.516;-0.470;2023-05-23T05:49:22;102425.13;;;10.94;36.32
39954;BME280;25631;51.516;-0.470;2023-05-23T05:51:58;102423.83;;;10.98;36.28
39954;BME280;25631;51.516;-0.470;2023-05-23T05:54:35;102426.37;;;11.12;36.28
39954;BME280;25631;51.516;-0.470;2023-05-23T05:57:11;102428.96;;;11.13;36.21
39954;BME280;25631;51.516;-0.470;2023-05-23T05:59:48;102434.01;;;11.25;36.18
39954;BME280;25631;51.516;-0.470;2023-05-23T06:02:25;102432.95;;;11.35;36.26
39954;BME280;25631;51.516;-0.470;2023-05-23T06:05:01;102437.20;;;11.16;36.18
39954;BME280;25631;51.516;-0.470;2023-05-23T06:07:38;102439.01;;;11.20;36.28
39954;BME280;25631;51.516;-0.470;2023-05-23T06:10:15;102437.97;;;11.45;36.20
39954;BME280;25631;51.516;-0.470;2023-05-23T06:12:51;102442.11;;;11.48;36.11
39954;BME280;25631;51.516;-0.470;2023-05-23T06:15:28;102443.06;;;11.49;36.07
39954;BME280;25631;51.516;-0.470;2023-05-23T06:18:04;102446.17;;;11.57;35.91
39954;BME280;25631;51.516;-0.470;2023-05-23T06:20:41;102449.11;;;11.33;35.91
39954;BME280;25631;51.516;-0.470;2023-05-23T06:23:17;102443.69;;;11.58;35.97
39954;BME280;25631;51.516;-0.470;2023-05-23T06:25:55;102449.81;;;11.37;35.94
39954;BME280;25631;51.516;-0.470;2023-05-23T06:28:32;102448.74;;;11.40;35.85
39954;BME280;25631;51.516;-0.470;2023-05-23T06:31:09;102446.51;;;11.52;35.74
39954;BME280;25631;51.516;-0.470;2023-05-23T06:33:46;102440.23;;;11.47;35.61
39954;BME280;25631;51.516;-0.470;2023-05-23T06:36:22;102440.94;;;11.50;35.40
39954;BME280;25631;51.516;-0.470;2023-05-23T06:38:59;102442.96;;;11.79;35.41
39954;BME280;25631;51.516;-0.470;2023-05-23T06:41:36;102442.02;;;11.67;35.33
39954;BME280;25631;51.516;-0.470;2023-05-23T06:44:17;102442.66;;;11.78;35.02
39954;BME280;25631;51.516;-0.470;2023-05-23T06:46:54;102440.72;;;11.85;35.00
39954;BME280;25631;51.516;-0.470;2023-05-23T06:49:32;102436.53;;;11.96;34.70
39954;BME280;25631;51.516;-0.470;2023-05-23T06:52:09;102436.68;;;12.21;34.51
39954;BME280;25631;51.516;-0.470;2023-05-23T06:54:45;102437.17;;;12.06;34.06
39954;BME280;25631;51.516;-0.470;2023-05-23T06:57:21;102442.76;;;12.19;33.67
39954;BME280;25631;51.516;-0.470;2023-05-23T06:59:58;102447.77;;;11.85;33.52
39954;BME280;25631;51.516;-0.470;2023-05-23T07:02:34;102450.01;;;12.14;33.40
39954;BME280;25631;51.516;-0.470;2023-05-23T07:05:11;102453.86;;;12.22;33.33
39954;BME280;25631;51.516;-0.470;2023-05-23T07:07:47;102456.16;;;12.29;33.45
39954;BME280;25631;51.516;-0.470;2023-05-23T07:10:24;102457.78;;;12.38;33.26
39954;BME280;25631;51.516;-0.470;2023-05-23T07:13:01;102451.42;;;12.65;33.13
39954;BME280;25631;51.516;-0.470;2023-05-23T07:15:37;102450.53;;;12.88;32.86
39954;BME280;25631;51.516;-0.470;2023-05-23T07:18:14;102448.00;;;12.87;32.93
39954;BME280;25631;51.516;-0.470;2023-05-23T07:20:50;102447.34;;;12.57;32.84
39954;BME280;25631;51.516;-0.470;2023-05-23T07:23:27;102435.79;;;13.17;32.28
39954;BME280;25631;51.516;-0.470;2023-05-23T07:26:07;102445.25;;;12.87;31.44
39954;BME280;25631;51.516;-0.470;2023-05-23T07:28:43;102452.86;;;12.77;30.96
39954;BME280;25631;51.516;-0.470;2023-05-23T07:31:20;102449.36;;;13.06;30.86
39954;BME280;25631;51.516;-0.470;2023-05-23T07:33:56;102450.69;;;12.79;30.78
39954;BME280;25631;51.516;-0.470;2023-05-23T07:36:34;102450.79;;;12.99;30.93
39954;BME280;25631;51.516;-0.470;2023-05-23T07:39:10;102451.75;;;12.90;30.92
39954;BME280;25631;51.516;-0.470;2023-05-23T07:41:47;102450.25;;;13.15;31.03
39954;BME280;25631;51.516;-0.470;2023-05-23T07:44:23;102449.04;;;13.36;31.02
39954;BME280;25631;51.516;-0.470;2023-05-23T07:47:00;102450.89;;;13.24;30.93
39954;BME280;25631;51.516;-0.470;2023-05-23T07:49:36;102454.92;;;13.59;30.86
39954;BME280;25631;51.516;-0.470;2023-05-23T07:52:13;102458.38;;;13.70;30.66
39954;BME280;25631;51.516;-0.470;2023-05-23T07:54:49;102459.37;;;13.44;29.97
39954;BME280;25631;51.516;-0.470;2023-05-23T07:57:29;102459.58;;;13.57;29.69
39954;BME280;25631;51.516;-0.470;2023-05-23T08:00:07;102462.13;;;13.26;29.60
39954;BME280;25631;51.516;-0.470;2023-05-23T08:02:43;102464.25;;;13.26;29.97
39954;BME280;25631;51.516;-0.470;2023-05-23T08:05:21;102464.58;;;13.32;30.08
39954;BME280;25631;51.516;-0.470;2023-05-23T08:07:57;102467.49;;;13.37;30.17
39954;BME280;25631;51.516;-0.470;2023-05-23T08:10:34;102468.39;;;13.71;30.04
39954;BME280;25631;51.516;-0.470;2023-05-23T08:13:10;102465.17;;;13.85;30.05
39954;BME280;25631;51.516;-0.470;2023-05-23T08:15:47;102468.66;;;13.96;29.49
39954;BME280;25631;51.516;-0.470;2023-05-23T08:18:23;102465.82;;;13.86;28.76
39954;BME280;25631;51.516;-0.470;2023-05-23T08:21:00;102465.76;;;13.77;28.18
39954;BME280;25631;51.516;-0.470;2023-05-23T08:23:37;102463.88;;;14.07;28.41
39954;BME280;25631;51.516;-0.470;2023-05-23T08:26:13;102469.13;;;14.20;28.58
39954;BME280;25631;51.516;-0.470;2023-05-23T08:28:51;102470.63;;;13.99;28.08
39954;BME280;25631;51.516;-0.470;2023-05-23T08:31:28;102470.19;;;14.49;27.58
39954;BME280;25631;51.516;-0.470;2023-05-23T08:34:09;102468.53;;;14.10;27.52
39954;BME280;25631;51.516;-0.470;2023-05-23T08:36:46;102470.83;;;14.43;27.52
39954;BME280;25631;51.516;-0.470;2023-05-23T08:39:23;102470.58;;;14.29;27.60
39954;BME280;25631;51.516;-0.470;2023-05-23T08:42:00;102470.38;;;14.65;27.72
39954;BME280;25631;51.516;-0.470;2023-05-23T08:44:38;102471.14;;;14.39;27.48
39954;BME280;25631;51.516;-0.470;2023-05-23T08:47:15;102472.12;;;14.05;27.54
39954;BME280;25631;51.516;-0.470;2023-05-23T08:49:54;102471.06;;;14.66;27.72
39954;BME280;25631;51.516;-0.470;2023-05-23T08:52:32;102473.19;;;14.63;27.54
39954;BME280;25631;51.516;-0.470;2023-05-23T08:55:10;102474.03;;;14.64;27.38
39954;BME280;25631;51.516;-0.470;2023-05-23T08:57:54;102469.63;;;14.79;27.30
39954;BME280;25631;51.516;-0.470;2023-05-23T09:00:32;102468.57;;;14.59;27.43
39954;BME280;25631;51.516;-0.470;2023-05-23T09:03:09;102468.83;;;14.56;27.52
39954;BME280;25631;51.516;-0.470;2023-05-23T09:05:47;102467.24;;;14.54;27.55
39954;BME280;25631;51.516;-0.470;2023-05-23T09:08:31;102468.17;;;14.51;27.62
39954;BME280;25631;51.516;-0.470;2023-05-23T09:11:07;102466.61;;;14.56;27.44
39954;BME280;25631;51.516;-0.470;2023-05-23T09:13:44;102468.28;;;14.69;27.46
39954;BME280;25631;51.516;-0.470;2023-05-23T09:16:20;102467.10;;;14.54;27.43
39954;BME280;25631;51.516;-0.470;2023-05-23T09:18:57;102466.75;;;14.71;27.54
39954;BME280;25631;51.516;-0.470;2023-05-23T09:21:33;102469.68;;;14.98;27.05
39954;BME280;25631;51.516;-0.470;2023-05-23T09:24:10;102470.55;;;14.76;26.95
39954;BME280;25631;51.516;-0.470;2023-05-23T09:26:47;102468.19;;;14.82;26.89
39954;BME280;25631;51.516;-0.470;2023-05-23T09:29:24;102466.35;;;14.87;26.70
39954;BME280;25631;51.516;-0.470;2023-05-23T09:32:09;102465.50;;;14.99;26.69
39954;BME280;25631;51.516;-0.470;2023-05-23T09:34:55;102462.94;;;14.77;26.68
39954;BME280;25631;51.516;-0.470;2023-05-23T09:37:34;102463.70;;;15.05;26.91
39954;BME280;25631;51.516;-0.470;2023-05-23T09:40:13;102467.01;;;14.94;26.93
39954;BME280;25631;51.516;-0.470;2023-05-23T09:42:50;102471.92;;;15.00;26.90
39954;BME280;25631;51.516;-0.470;2023-05-23T09:45:29;102473.35;;;14.91;26.71
39954;BME280;25631;51.516;-0.470;2023-05-23T09:48:11;102473.60;;;15.07;26.69
39954;BME280;25631;51.516;-0.470;2023-05-23T09:50:49;102479.75;;;15.05;26.83
39954;BME280;25631;51.516;-0.470;2023-05-23T09:53:25;102483.13;;;14.89;26.60
39954;BME280;25631;51.516;-0.470;2023-05-23T09:56:03;102482.50;;;15.02;26.45
39954;BME280;25631;51.516;-0.470;2023-05-23T09:58:43;102483.63;;;14.86;26.74
39954;BME280;25631;51.516;-0.470;2023-05-23T10:01:22;102480.02;;;14.94;26.71
39954;BME280;25631;51.516;-0.470;2023-05-23T10:03:58;102477.51;;;14.96;26.75
39954;BME280;25631;51.516;-0.470;2023-05-23T10:06:40;102480.49;;;15.24;26.93
39954;BME280;25631;51.516;-0.470;2023-05-23T10:09:22;102481.59;;;15.39;26.58
39954;BME280;25631;51.516;-0.470;2023-05-23T10:13:05;102484.38;;;15.44;26.35
39954;BME280;25631;51.516;-0.470;2023-05-23T10:15:48;102475.42;;;15.78;26.19
39954;BME280;25631;51.516;-0.470;2023-05-23T10:18:28;102471.98;;;15.49;25.93
39954;BME280;25631;51.516;-0.470;2023-05-23T10:21:10;102475.21;;;15.78;25.75
39954;BME280;25631;51.516;-0.470;2023-05-23T10:23:47;102475.45;;;15.82;25.37
39954;BME280;25631;51.516;-0.470;2023-05-23T10:26:25;102476.74;;;16.20;25.29
39954;BME280;25631;51.516;-0.470;2023-05-23T10:29:02;102476.22;;;16.35;24.92
39954;BME280;25631;51.516;-0.470;2023-05-23T10:31:39;102472.79;;;16.33;25.05
39954;BME280;25631;51.516;-0.470;2023-05-23T10:34:23;102478.89;;;16.58;24.86
39954;BME280;25631;51.516;-0.470;2023-05-23T10:37:02;102478.16;;;16.82;24.63
39954;BME280;25631;51.516;-0.470;2023-05-23T10:39:50;102476.04;;;16.60;24.03
39954;BME280;25631;51.516;-0.470;2023-05-23T10:42:39;102479.57;;;17.02;24.13
39954;BME280;25631;51.516;-0.470;2023-05-23T10:45:19;102475.07;;;16.81;23.57
39954;BME280;25631;51.516;-0.470;2023-05-23T10:47:59;102474.32;;;16.89;23.71
39954;BME280;25631;51.516;-0.470;2023-05-23T10:50:36;102472.46;;;17.12;23.16
39954;BME280;25631;51.516;-0.470;2023-05-23T10:53:15;102480.84;;;16.95;23.33
39954;BME280;25631;51.516;-0.470;2023-05-23T10:55:51;102480.16;;;17.39;23.32
39954;BME280;25631;51.516;-0.470;2023-05-23T10:58:32;102477.20;;;17.37;23.20
39954;BME280;25631;51.516;-0.470;2023-05-23T11:01:12;102476.70;;;17.33;23.29
39954;BME280;25631;51.516;-0.470;2023-05-23T11:03:50;102478.51;;;17.49;23.20
39954;BME280;25631;51.516;-0.470;2023-05-23T11:06:29;102476.45;;;17.63;23.32
39954;BME280;25631;51.516;-0.470;2023-05-23T11:09:09;102479.99;;;17.69;22.81
39954;BME280;25631;51.516;-0.470;2023-05-23T11:11:54;102483.04;;;17.61;22.43
39954;BME280;25631;51.516;-0.470;2023-05-23T11:14:52;102486.75;;;17.52;22.65
39954;BME280;25631;51.516;-0.470;2023-05-23T11:17:31;102487.06;;;17.42;22.67
39954;BME280;25631;51.516;-0.470;2023-05-23T11:20:08;102485.65;;;17.51;22.67
39954;BME280;25631;51.516;-0.470;2023-05-23T11:22:53;102483.09;;;17.65;22.65
39954;BME280;25631;51.516;-0.470;2023-05-23T11:25:49;102484.66;;;17.77;22.91
39954;BME280;25631;51.516;-0.470;2023-05-23T11:28:25;102485.09;;;17.72;22.96
39954;BME280;25631;51.516;-0.470;2023-05-23T11:31:02;102483.50;;;17.63;23.10
39954;BME280;25631;51.516;-0.470;2023-05-23T11:33:39;102484.48;;;17.83;23.31
39954;BME280;25631;51.516;-0.470;2023-05-23T11:36:15;102487.87;;;17.71;23.15
39954;BME280;25631;51.516;-0.470;2023-05-23T11:38:52;102488.26;;;17.52;23.19
39954;BME280;25631;51.516;-0.470;2023-05-23T11:41:29;102489.32;;;17.56;23.34
39954;BME280;25631;51.516;-0.470;2023-05-23T11:44:13;102487.98;;;17.49;23.45
39954;BME280;25631;51.516;-0.470;2023-05-23T11:46:59;102485.86;;;17.49;23.45
39954;BME280;25631;51.516;-0.470;2023-05-23T11:49:37;102486.87;;;17.49;23.61
39954;BME280;25631;51.516;-0.470;2023-05-23T11:52:14;102488.40;;;17.60;23.61
39954;BME280;25631;51.516;-0.470;2023-05-23T11:54:51;102481.74;;;17.43;23.78
39954;BME280;25631;51.516;-0.470;2023-05-23T11:57:28;102482.76;;;17.55;23.75
39954;BME280;25631;51.516;-0.470;2023-05-23T12:00:07;102482.87;;;17.74;23.70
39954;BME280;25631;51.516;-0.470;2023-05-23T12:02:44;102480.60;;;17.68;23.67
39954;BME280;25631;51.516;-0.470;2023-05-23T12:05:21;102480.29;;;17.90;24.05
39954;BME280;25631;51.516;-0.470;2023-05-23T12:07:59;102471.05;;;18.01;23.91
39954;BME280;25631;51.516;-0.470;2023-05-23T12:10:35;102470.85;;;18.20;24.03
39954;BME280;25631;51.516;-0.470;2023-05-23T12:13:12;102467.17;;;18.47;23.98
39954;BME280;25631;51.516;-0.470;2023-05-23T12:15:48;102464.67;;;18.85;23.76
39954;BME280;25631;51.516;-0.470;2023-05-23T12:18:29;102466.77;;;19.19;23.58
39954;BME280;25631;51.516;-0.470;2023-05-23T12:21:06;102472.14;;;18.97;23.08
39954;BME280;25631;51.516;-0.470;2023-05-23T12:23:43;102470.71;;;18.91;22.77
39954;BME280;25631;51.516;-0.470;2023-05-23T12:26:20;102477.13;;;19.09;22.67
39954;BME280;25631;51.516;-0.470;2023-05-23T12:28:57;102468.30;;;19.08;22.64
39954;BME280;25631;51.516;-0.470;2023-05-23T12:31:33;102466.49;;;19.23;22.88
39954;BME280;25631;51.516;-0.470;2023-05-23T12:34:13;102465.18;;;19.17;22.77
39954;BME280;25631;51.516;-0.470;2023-05-23T12:36:53;102462.65;;;19.36;23.00
39954;BME280;25631;51.516;-0.470;2023-05-23T12:39:30;102456.49;;;19.07;23.24
39954;BME280;25631;51.516;-0.470;2023-05-23T12:42:07;102453.69;;;19.11;23.41
39954;BME280;25631;51.516;-0.470;2023-05-23T12:44:44;102458.96;;;19.14;23.36
39954;BME280;25631;51.516;-0.470;2023-05-23T12:47:20;102458.92;;;18.72;23.16
39954;BME280;25631;51.516;-0.470;2023-05-23T12:49:57;102458.01;;;19.09;23.29
39954;BME280;25631;51.516;-0.470;2023-05-23T12:52:33;102454.21;;;18.93;23.24
39954;BME280;25631;51.516;-0.470;2023-05-23T12:55:12;102453.51;;;19.10;23.32
39954;BME280;25631;51.516;-0.470;2023-05-23T12:57:49;102456.09;;;19.25;23.37
39954;BME280;25631;51.516;-0.470;2023-05-23T13:00:25;102449.25;;;18.94;23.30
39954;BME280;25631;51.516;-0.470;2023-05-23T13:03:01;102447.18;;;18.70;23.24
39954;BME280;25631;51.516;-0.470;2023-05-23T13:05:38;102450.54;;;19.19;23.30
39954;BME280;25631;51.516;-0.470;2023-05-23T13:08:15;102447.64;;;18.83;23.39
39954;BME280;25631;51.516;-0.470;2023-05-23T13:10:52;102444.05;;;19.16;23.31
39954;BME280;25631;51.516;-0.470;2023-05-23T13:13:29;102443.88;;;19.00;23.17
39954;BME280;25631;51.516;-0.470;2023-05-23T13:16:05;102439.01;;;19.14;23.28
39954;BME280;25631;51.516;-0.470;2023-05-23T13:18:42;102443.11;;;19.32;23.26
39954;BME280;25631;51.516;-0.470;2023-05-23T13:21:19;102440.92;;;19.23;23.08
39954;BME280;25631;51.516;-0.470;2023-05-23T13:23:55;102442.92;;;19.45;23.08
39954;BME280;25631;51.516;-0.470;2023-05-23T13:26:31;102445.56;;;19.78;22.99
39954;BME280;25631;51.516;-0.470;2023-05-23T13:29:08;102442.36;;;19.67;22.90
39954;BME280;25631;51.516;-0.470;2023-05-23T13:31:44;102439.73;;;19.91;22.77
39954;BME280;25631;51.516;-0.470;2023-05-23T13:34:21;102435.96;;;19.88;22.78